Weather History for Taos, NM

Change the Weather History Date:

Sunday, February 10, 2013

  Actual Average Record
Temperature  
Mean Temperature 26 °F -  
Max Temperature 33 °F 41 °F 55 °F (1999)
Min Temperature 19 °F 14 °F -2 °F (2004)
Degree Days  
Heating Degree Days 39    
Moisture  
Dew Point 15 °F    
Average Humidity 68    
Maximum Humidity 80    
Minimum Humidity 44    
Precipitation  
Precipitation 0.00 in - - ()
Sea Level Pressure  
Sea Level Pressure 29.83 in    
Wind  
Wind Speed 13 mph (SW)    
Max Wind Speed 20 mph    
Max Gust Speed 23 mph    
Visibility 10 miles    
Events      
Averages and records for this station are not official NWS values.
T = Trace of Precipitation, MM = Missing Value Source: NWS Daily Summary

Daily Weather History Graph

Daily Weather History Graph

Search for Another Location

Airport:

Trip Planner

Search our weather history database for the weather conditions in past years. The results will help you decide how hot, cold, wet, or windy it might be!

Date:

Astronomy

Feb. 10, 2013 Rise Set
Actual Time 6:55 AM MST 5:38 PM MST
Civil Twilight 6:29 AM MST 6:05 PM MST
Nautical Twilight 5:58 AM MST 6:35 PM MST
Astronomical Twilight 5:28 AM MST 7:05 PM MST
Moon 6:49 AM MST (2/10) 6:29 PM MST (2/10)
Length of Visible Light 11h 36m
Length of Day
10h 43m
New Moon, 0% of the Moon is Illuminated
Feb 10
New Moon
Feb 17
First Quarter
Feb 25
Full
Mar 4
Last Quarter
Mar 11
New

Hourly Weather History & Observations

Time (MST) Temp. Windchill Dew Point Humidity Pressure Visibility Wind Dir Wind Speed Gust Speed Precip Events Conditions
12:15 AM 23.0 °F 9.2 °F 17.6 °F 80% 29.72 in 10.0 mi SW 17.3 mph - N/A   Overcast
12:35 AM 23.0 °F 8.7 °F 17.6 °F 80% 29.72 in 10.0 mi SW 18.4 mph 21.9 mph N/A   Overcast
12:55 AM 23.0 °F 8.3 °F 15.8 °F 74% 29.73 in 10.0 mi SW 19.6 mph - N/A   Overcast
1:15 AM 23.0 °F 8.3 °F 15.8 °F 74% 29.73 in 6.0 mi SW 19.6 mph - N/A   Overcast
1:35 AM 23.0 °F 9.2 °F 15.8 °F 74% 29.73 in 10.0 mi SW 17.3 mph - N/A   Overcast
1:55 AM 23.0 °F 10.1 °F 15.8 °F 74% 29.73 in 6.0 mi SW 15.0 mph - N/A   Overcast
2:15 AM 23.0 °F 10.1 °F 15.8 °F 74% 29.73 in 10.0 mi SW 15.0 mph - N/A   Overcast
2:35 AM 23.0 °F 10.6 °F 14.0 °F 68% 29.73 in 10.0 mi SW 13.8 mph - N/A   Overcast
2:55 AM 23.0 °F 11.1 °F 14.0 °F 68% 29.73 in 10.0 mi SW 12.7 mph 18.4 mph N/A   Overcast
3:15 AM 23.0 °F 8.7 °F 14.0 °F 68% 29.73 in 10.0 mi WSW 18.4 mph - N/A   Overcast
3:35 AM 23.0 °F 10.1 °F 14.0 °F 68% 29.74 in 10.0 mi SW 15.0 mph 19.6 mph N/A   Overcast
3:55 AM 21.2 °F 7.3 °F 14.0 °F 74% 29.74 in 10.0 mi SW 16.1 mph - N/A   Overcast
4:15 AM 21.2 °F 10.1 °F 12.2 °F 68% 29.75 in 10.0 mi SSW 10.4 mph - N/A   Overcast
4:35 AM 21.2 °F 10.1 °F 14.0 °F 74% 29.75 in 10.0 mi SSW 10.4 mph - N/A   Overcast
4:55 AM 21.2 °F 9.5 °F 12.2 °F 68% 29.75 in 10.0 mi SSW 11.5 mph - N/A   Overcast
5:15 AM 21.2 °F 8.3 °F 12.2 °F 68% 29.75 in 10.0 mi SSW 13.8 mph - N/A   Overcast
5:35 AM 21.2 °F 9.5 °F 14.0 °F 74% 29.75 in 10.0 mi SSW 11.5 mph - N/A   Overcast
5:55 AM 21.2 °F 8.3 °F 14.0 °F 74% 29.76 in 10.0 mi SSW 13.8 mph - N/A   Overcast
6:15 AM 21.2 °F 12.6 °F 14.0 °F 74% 29.77 in 10.0 mi SSW 6.9 mph - N/A   Overcast
6:35 AM 21.2 °F 11.7 °F 15.8 °F 80% 29.77 in 10.0 mi SSW 8.1 mph - N/A   Overcast
6:55 AM 19.4 °F 11.5 °F 12.2 °F 74% 29.78 in 10.0 mi South 5.8 mph - N/A   Overcast
7:15 AM 19.4 °F 7.9 °F 12.2 °F 74% 29.78 in 10.0 mi South 10.4 mph 16.1 mph N/A   Mostly Cloudy
7:35 AM 19.4 °F 12.8 °F 12.2 °F 74% 29.80 in 10.0 mi SSW 4.6 mph - N/A   Mostly Cloudy
7:55 AM 19.4 °F 6.6 °F 12.2 °F 74% 29.80 in 10.0 mi SW 12.7 mph - N/A   Scattered Clouds
8:15 AM 21.2 °F 12.6 °F 12.2 °F 68% 29.81 in 10.0 mi SW 6.9 mph - N/A   Clear
8:35 AM 21.2 °F 10.1 °F 15.8 °F 80% 29.82 in 10.0 mi SW 10.4 mph - N/A   Mostly Cloudy
8:55 AM 23.0 °F 11.7 °F 14.0 °F 68% 29.83 in 10.0 mi SW 11.5 mph - N/A   Overcast
9:15 AM 24.8 °F 12.9 °F 14.0 °F 64% 29.84 in 10.0 mi WSW 13.8 mph 17.3 mph N/A   Overcast
9:35 AM 24.8 °F 13.4 °F 14.0 °F 64% 29.85 in 10.0 mi SW 12.7 mph - N/A   Overcast
9:55 AM 24.8 °F 12.4 °F 15.8 °F 69% 29.85 in 10.0 mi SW 15.0 mph - N/A   Overcast
10:15 AM 24.8 °F 11.9 °F 15.8 °F 69% 29.85 in 10.0 mi SW 16.1 mph 20.7 mph N/A   Overcast
10:35 AM 26.6 °F 15.2 °F 15.8 °F 64% 29.85 in 10.0 mi WSW 13.8 mph - N/A   Mostly Cloudy
10:55 AM 28.4 °F 17.0 °F 15.8 °F 59% 29.86 in 10.0 mi SW 15.0 mph 23.0 mph N/A   Overcast
11:15 AM 28.4 °F 16.2 °F 17.6 °F 64% 29.86 in 10.0 mi SW 17.3 mph - N/A   Overcast
11:35 AM 28.4 °F 16.6 °F 17.6 °F 64% 29.86 in 10.0 mi SW 16.1 mph - N/A   Overcast
11:55 AM 26.6 °F 14.3 °F 17.6 °F 69% 29.85 in 10.0 mi SW 16.1 mph - N/A   Overcast
12:15 PM 26.6 °F 14.3 °F 17.6 °F 69% 29.85 in 3.0 mi SW 16.1 mph - N/A   Overcast
12:35 PM 26.6 °F 14.7 °F 19.4 °F 74% 29.85 in 7.0 mi SSW 15.0 mph - N/A   Overcast
12:55 PM 24.8 °F 14.0 °F 19.4 °F 80% 29.84 in 0.5 mi SSW 11.5 mph - N/A   Overcast
1:15 PM 28.4 °F 21.2 °F 21.2 °F 74% 29.84 in 5.0 mi SW 6.9 mph - N/A   Overcast
1:35 PM 28.4 °F 19.7 °F 17.6 °F 64% 29.84 in 10.0 mi WSW 9.2 mph - N/A   Overcast
1:55 PM 28.4 °F 19.7 °F 15.8 °F 59% 29.83 in 10.0 mi WSW 9.2 mph - N/A   Overcast
2:15 PM 28.4 °F 18.0 °F 14.0 °F 55% 29.83 in 10.0 mi SW 12.7 mph - N/A   Overcast
2:35 PM 28.4 °F - 14.0 °F 55% 29.83 in 10.0 mi Calm Calm - N/A   Overcast
2:55 PM 30.2 °F - 15.8 °F 55% 29.83 in 10.0 mi Calm Calm - N/A   Overcast
3:15 PM 32.0 °F 24.2 °F 15.8 °F 51% 29.84 in 10.0 mi WSW 9.2 mph - N/A   Mostly Cloudy
3:35 PM 33.8 °F 26.4 °F 15.8 °F 48% 29.83 in 10.0 mi WSW 9.2 mph - N/A   Overcast
3:55 PM 33.8 °F 23.9 °F 14.0 °F 44% 29.84 in 10.0 mi WSW 15.0 mph 18.4 mph N/A   Overcast
4:15 PM 30.2 °F 21.9 °F 14.0 °F 51% 29.85 in 10.0 mi WSW 9.2 mph - N/A   Mostly Cloudy
4:35 PM 32.0 °F 22.5 °F 14.0 °F 48% 29.85 in 10.0 mi West 12.7 mph - N/A   Mostly Cloudy
4:55 PM 30.2 °F 21.9 °F 12.2 °F 47% 29.86 in 10.0 mi WSW 9.2 mph - N/A   Partly Cloudy
5:15 PM 28.4 °F 19.7 °F 15.8 °F 59% 29.87 in 10.0 mi SW 9.2 mph - N/A   Clear
5:35 PM 28.4 °F 21.2 °F 15.8 °F 59% 29.87 in 10.0 mi WSW 6.9 mph - N/A   Clear
5:55 PM 28.4 °F 18.5 °F 15.8 °F 59% 29.88 in 10.0 mi SW 11.5 mph 16.1 mph N/A   Clear
6:15 PM 26.6 °F 19.1 °F 17.6 °F 69% 29.89 in 10.0 mi SW 6.9 mph - N/A   Clear
6:35 PM 26.6 °F 21.2 °F 15.8 °F 64% 29.89 in 10.0 mi WSW 4.6 mph - N/A   Clear
6:55 PM 24.8 °F 20.5 °F 15.8 °F 69% 29.89 in 10.0 mi WSW 3.5 mph - N/A   Clear
7:15 PM 26.6 °F - 15.8 °F 64% 29.90 in 10.0 mi Calm Calm - N/A   Clear
7:35 PM 23.0 °F 15.8 °F 17.6 °F 80% 29.90 in 10.0 mi ESE 5.8 mph - N/A   Clear
7:55 PM 23.0 °F 15.8 °F 17.6 °F 80% 29.90 in 10.0 mi ESE 5.8 mph - N/A   Clear
8:15 PM 23.0 °F 14.7 °F 17.6 °F 80% 29.91 in 10.0 mi East 6.9 mph - N/A   Partly Cloudy
8:35 PM 23.0 °F 15.8 °F 17.6 °F 80% 29.91 in 10.0 mi East 5.8 mph - N/A   Scattered Clouds
8:55 PM 23.0 °F 15.8 °F 17.6 °F 80% 29.92 in 10.0 mi ESE 5.8 mph - N/A   Overcast
9:15 PM 24.8 °F 16.1 °F 15.8 °F 69% 29.93 in 10.0 mi SSE 8.1 mph - N/A   Overcast
9:35 PM 24.8 °F 17.9 °F 15.8 °F 69% 29.93 in 10.0 mi SE 5.8 mph - N/A   Overcast
9:55 PM 23.0 °F 15.8 °F 15.8 °F 74% 29.93 in 10.0 mi ESE 5.8 mph - N/A   Overcast
10:15 PM 21.2 °F 12.6 °F 15.8 °F 80% 29.94 in 10.0 mi ESE 6.9 mph - N/A   Overcast
10:35 PM 23.0 °F 14.7 °F 15.8 °F 74% 29.95 in 10.0 mi ESE 6.9 mph - N/A   Overcast
10:55 PM 23.0 °F 15.8 °F 15.8 °F 74% 29.95 in 10.0 mi East 5.8 mph - N/A   Overcast
11:15 PM 24.8 °F 17.9 °F 15.8 °F 69% 29.95 in 10.0 mi East 5.8 mph - N/A   Overcast
11:35 PM 24.8 °F 20.5 °F 15.8 °F 69% 29.94 in 10.0 mi East 3.5 mph - N/A   Overcast
11:55 PM 24.8 °F 19.1 °F 15.8 °F 69% 29.95 in 10.0 mi WSW 4.6 mph - N/A   Overcast